Time;durP1;ratioP1;P1;durP2;ratioP2;P2;SDS_P1;SDS_P2;PMS_P1;PMS_P2;Temp;Humidity;BMP_temperature;BMP_pressure;BME280_temperature;BME280_humidity;BME280_pressure;Samples;Min_cycle;Max_cycle;Signal;HPM_P1;HPM_P2
2023/11/17 00:00:26;;;;;;;5.22;3.35;;;;;;;;;;10284601;28;20072;-49
2023/11/17 00:05:25;;;;;;;3.72;3.15;;;;;;;;;;10286878;28;20075;-53
2023/11/17 00:10:24;;;;;;;3.22;2.70;;;;;;;;;;10286659;28;20079;-48
2023/11/17 00:15:23;;;;;;;6.28;2.60;;;;;;;;;;10290247;28;20083;-51
2023/11/17 00:20:22;;;;;;;5.07;2.80;;;;;;;;;;10287479;28;20522;-50
2023/11/17 00:25:21;;;;;;;3.40;2.72;;;;;;;;;;10295459;28;20072;-52
2023/11/17 00:30:20;;;;;;;3.40;2.63;;;;;;;;;;10291342;28;20069;-49
2023/11/17 00:35:18;;;;;;;2.65;2.30;;;;;;;;;;10292725;28;20536;-49
2023/11/17 00:40:17;;;;;;;2.85;2.13;;;;;;;;;;10290914;28;20094;-48
2023/11/17 00:45:18;;;;;;;5.88;3.22;;;;;;;;;;10288524;28;20072;-52
2023/11/17 00:50:16;;;;;;;6.00;2.58;;;;;;;;;;10289879;28;20473;-51
2023/11/17 00:55:15;;;;;;;6.65;2.78;;;;;;;;;;10293201;28;20077;-48
2023/11/17 01:00:14;;;;;;;3.08;2.33;;;;;;;;;;10290958;28;20064;-54
2023/11/17 01:05:14;;;;;;;3.22;2.80;;;;;;;;;;10299114;28;20077;-49
2023/11/17 01:10:12;;;;;;;2.50;2.05;;;;;;;;;;10288275;28;20080;-50
2023/11/17 01:15:13;;;;;;;2.75;2.40;;;;;;;;;;10293969;28;20084;-49
2023/11/17 01:20:12;;;;;;;2.90;2.40;;;;;;;;;;10294765;28;20114;-49
2023/11/17 01:25:12;;;;;;;2.25;2.05;;;;;;;;;;10289673;28;20655;-50
2023/11/17 01:30:10;;;;;;;2.47;2.28;;;;;;;;;;10288534;28;20327;-49
2023/11/17 01:35:09;;;;;;;2.45;2.15;;;;;;;;;;10289592;28;20091;-50
2023/11/17 01:40:08;;;;;;;3.40;2.10;;;;;;;;;;10289148;28;20072;-49
2023/11/17 01:45:08;;;;;;;1.80;1.70;;;;;;;;;;10290548;28;20071;-49
2023/11/17 01:50:09;;;;;;;3.05;2.35;;;;;;;;;;10289020;28;20099;-51
2023/11/17 01:55:08;;;;;;;4.47;3.67;;;;;;;;;;10284122;28;20091;-49
2023/11/17 02:00:14;;;;;;;4.05;3.30;;;;;;;;;;10290003;28;20520;-56
2023/11/17 02:05:15;;;;;;;2.55;2.35;;;;;;;;;;10288228;28;20068;-54
2023/11/17 02:10:20;;;;;;;3.90;2.00;;;;;;;;;;10298383;28;20083;-48
2023/11/17 02:15:25;;;;;;;2.40;2.20;;;;;;;;;;10291118;28;20641;-54
2023/11/17 02:20:25;;;;;;;3.23;2.40;;;;;;;;;;10284012;28;20099;-50
2023/11/17 02:25:28;;;;;;;3.22;2.33;;;;;;;;;;10296620;28;20078;-52
2023/11/17 02:30:29;;;;;;;3.80;2.47;;;;;;;;;;10290167;28;20075;-50
2023/11/17 02:35:29;;;;;;;3.50;2.55;;;;;;;;;;10292378;28;20481;-50
2023/11/17 02:40:31;;;;;;;3.40;1.98;;;;;;;;;;10300873;28;20072;-53
2023/11/17 02:45:36;;;;;;;3.35;2.15;;;;;;;;;;10286799;28;20126;-51
2023/11/17 02:50:38;;;;;;;2.13;1.88;;;;;;;;;;10286713;28;20076;-57
2023/11/17 02:55:38;;;;;;;2.30;1.98;;;;;;;;;;10287253;28;20079;-50
2023/11/17 03:00:38;;;;;;;2.03;1.83;;;;;;;;;;10287886;28;20067;-54
2023/11/17 03:05:37;;;;;;;3.42;2.38;;;;;;;;;;10289578;28;20087;-55
2023/11/17 03:10:36;;;;;;;2.58;2.33;;;;;;;;;;10294959;28;20083;-55
2023/11/17 03:15:35;;;;;;;2.00;1.80;;;;;;;;;;10290067;28;20076;-52
2023/11/17 03:20:34;;;;;;;2.42;1.95;;;;;;;;;;10287596;28;20080;-56
2023/11/17 03:25:39;;;;;;;7.75;2.72;;;;;;;;;;10287207;28;20080;-53
2023/11/17 03:30:38;;;;;;;4.55;2.30;;;;;;;;;;10284646;28;20206;-55
2023/11/17 03:35:40;;;;;;;2.08;1.80;;;;;;;;;;10286725;28;20065;-53
2023/11/17 03:40:38;;;;;;;2.13;1.90;;;;;;;;;;10299877;28;20088;-51
2023/11/17 03:45:37;;;;;;;2.15;1.95;;;;;;;;;;10287515;28;20521;-54
2023/11/17 03:50:38;;;;;;;3.20;1.95;;;;;;;;;;10294043;28;20079;-55
2023/11/17 03:55:38;;;;;;;2.78;2.53;;;;;;;;;;10293608;28;20079;-54
2023/11/17 04:00:36;;;;;;;2.53;2.20;;;;;;;;;;10297767;28;20477;-55
2023/11/17 04:05:35;;;;;;;2.40;2.20;;;;;;;;;;10295438;28;20077;-52
2023/11/17 04:10:35;;;;;;;4.28;3.53;;;;;;;;;;10295772;28;20532;-55
2023/11/17 04:15:35;;;;;;;2.55;2.35;;;;;;;;;;10296216;28;20136;-52
2023/11/17 04:20:33;;;;;;;2.50;1.63;;;;;;;;;;10295099;28;20084;-55
2023/11/17 04:25:32;;;;;;;1.98;1.88;;;;;;;;;;10301092;28;20076;-53
2023/11/17 04:30:31;;;;;;;2.65;2.45;;;;;;;;;;10294679;28;20506;-53
2023/11/17 04:35:31;;;;;;;3.47;1.98;;;;;;;;;;10292015;28;20705;-55
2023/11/17 04:40:30;;;;;;;2.55;1.73;;;;;;;;;;10292916;28;20064;-53
2023/11/17 04:45:35;;;;;;;4.15;1.92;;;;;;;;;;10292119;28;20098;-54
2023/11/17 04:50:35;;;;;;;3.57;1.90;;;;;;;;;;10292704;28;20080;-51
2023/11/17 04:55:33;;;;;;;2.80;2.00;;;;;;;;;;10290517;28;20064;-51
2023/11/17 05:00:32;;;;;;;5.63;5.05;;;;;;;;;;10292796;28;20071;-55
2023/11/17 05:05:31;;;;;;;3.45;2.67;;;;;;;;;;10292909;28;20107;-56
2023/11/17 05:10:30;;;;;;;2.33;2.13;;;;;;;;;;10290461;28;20064;-47
2023/11/17 05:15:29;;;;;;;3.42;2.35;;;;;;;;;;10296431;28;20069;-56
2023/11/17 05:20:29;;;;;;;5.57;2.63;;;;;;;;;;10292511;28;20088;-55
2023/11/17 05:25:27;;;;;;;2.15;1.80;;;;;;;;;;10288426;28;20068;-56
2023/11/17 05:30:27;;;;;;;2.70;2.03;;;;;;;;;;10289665;28;20080;-52
2023/11/17 05:35:26;;;;;;;3.55;2.50;;;;;;;;;;10289625;28;20083;-56
2023/11/17 05:40:24;;;;;;;3.00;2.60;;;;;;;;;;10290468;28;20080;-55
2023/11/17 05:45:22;;;;;;;7.68;3.25;;;;;;;;;;10290324;28;20072;-56
2023/11/17 05:50:22;;;;;;;4.15;3.75;;;;;;;;;;10295275;28;20544;-56
2023/11/17 05:55:20;;;;;;;10.75;4.22;;;;;;;;;;10285086;28;20065;-53
2023/11/17 06:00:19;;;;;;;3.85;3.20;;;;;;;;;;10287914;28;20082;-50
2023/11/17 06:05:17;;;;;;;7.00;3.97;;;;;;;;;;10280746;28;20584;-54
2023/11/17 06:10:17;;;;;;;5.78;2.78;;;;;;;;;;10286349;28;20516;-56
2023/11/17 06:15:20;;;;;;;7.20;4.45;;;;;;;;;;10284626;28;20075;-53
2023/11/17 06:20:18;;;;;;;8.27;3.88;;;;;;;;;;10273878;28;20076;-55
2023/11/17 06:25:18;;;;;;;6.13;3.70;;;;;;;;;;10275671;28;20084;-54
2023/11/17 06:30:16;;;;;;;11.98;4.50;;;;;;;;;;10278483;28;20473;-55
2023/11/17 06:35:15;;;;;;;9.10;4.00;;;;;;;;;;10283037;28;20769;-54
2023/11/17 06:40:15;;;;;;;6.75;3.92;;;;;;;;;;10287962;28;20677;-52
2023/11/17 06:45:15;;;;;;;12.30;7.82;;;;;;;;;;10283270;28;20060;-54
2023/11/17 06:50:13;;;;;;;10.60;6.28;;;;;;;;;;10275639;28;20069;-56
2023/11/17 09:02:38;;;;;;;11.25;6.35;;;;;;;;;;10284955;28;20390;-61
2023/11/17 09:07:41;;;;;;;10.55;6.65;;;;;;;;;;10282173;28;20064;-62
2023/11/17 09:12:42;;;;;;;9.13;7.97;;;;;;;;;;10284327;28;20085;-62
2023/11/17 09:17:51;;;;;;;10.77;7.38;;;;;;;;;;10279476;28;20068;-62
2023/11/17 09:22:52;;;;;;;13.80;8.13;;;;;;;;;;10281879;28;20077;-62
2023/11/17 09:27:52;;;;;;;13.13;10.43;;;;;;;;;;10284399;28;20498;-62
2023/11/17 09:32:54;;;;;;;33.88;9.35;;;;;;;;;;10284555;28;20060;-54
2023/11/17 09:37:54;;;;;;;10.38;7.30;;;;;;;;;;10283659;28;20080;-54
2023/11/17 09:42:53;;;;;;;12.35;8.07;;;;;;;;;;10281998;28;20068;-51
2023/11/17 09:47:54;;;;;;;14.02;10.43;;;;;;;;;;10283744;28;20170;-54
2023/11/17 09:52:54;;;;;;;11.23;7.38;;;;;;;;;;10281500;28;20079;-53
2023/11/17 09:57:54;;;;;;;13.55;8.65;;;;;;;;;;10282535;28;20077;-54
2023/11/17 10:02:55;;;;;;;18.02;7.35;;;;;;;;;;10258995;28;20069;-54
2023/11/17 10:07:55;;;;;;;9.07;7.38;;;;;;;;;;10254950;28;20072;-52
2023/11/17 10:12:55;;;;;;;13.25;8.90;;;;;;;;;;10257216;28;20467;-55
2023/11/17 10:17:56;;;;;;;15.98;8.07;;;;;;;;;;10254098;28;20065;-55
2023/11/17 10:22:55;;;;;;;25.70;19.23;;;;;;;;;;10255615;28;20065;-53
2023/11/17 10:27:53;;;;;;;10.00;6.18;;;;;;;;;;10254205;28;20081;-55
2023/11/17 10:32:59;;;;;;;15.88;8.80;;;;;;;;;;10238558;28;20060;-55
2023/11/17 10:38:05;;;;;;;5.65;4.90;;;;;;;;;;10253238;28;20117;-55
2023/11/17 10:43:08;;;;;;;16.02;7.55;;;;;;;;;;10252756;28;20088;-52
2023/11/17 10:48:12;;;;;;;10.60;9.23;;;;;;;;;;10253938;28;20080;-53
2023/11/17 10:53:18;;;;;;;12.80;8.90;;;;;;;;;;10255049;28;20072;-50
2023/11/17 10:58:17;;;;;;;13.32;9.65;;;;;;;;;;10252872;28;20085;-55
2023/11/17 11:03:18;;;;;;;12.75;10.30;;;;;;;;;;10254255;28;20453;-54
2023/11/17 11:08:18;;;;;;;14.00;10.48;;;;;;;;;;10253708;28;20072;-55
2023/11/17 11:13:17;;;;;;;9.68;5.97;;;;;;;;;;10249316;28;20060;-49
2023/11/17 11:18:17;;;;;;;6.63;5.50;;;;;;;;;;10255329;28;20068;-58
2023/11/17 11:23:16;;;;;;;8.40;6.68;;;;;;;;;;10251995;28;20076;-56
2023/11/17 11:28:15;;;;;;;12.60;8.30;;;;;;;;;;10249821;28;20076;-54
2023/11/17 11:33:20;;;;;;;8.98;7.47;;;;;;;;;;10249415;28;20099;-56
2023/11/17 11:38:19;;;;;;;7.37;6.60;;;;;;;;;;10252347;28;20092;-56
2023/11/17 11:43:18;;;;;;;12.40;7.28;;;;;;;;;;10251977;28;20319;-55
2023/11/17 11:48:20;;;;;;;15.00;7.95;;;;;;;;;;10249210;28;20510;-55
2023/11/17 11:53:24;;;;;;;12.90;7.43;;;;;;;;;;10249122;28;20077;-56
2023/11/17 11:58:23;;;;;;;11.30;7.20;;;;;;;;;;10249441;28;20072;-56
2023/11/17 12:03:24;;;;;;;12.73;7.85;;;;;;;;;;10250960;28;20489;-57
2023/11/17 12:08:27;;;;;;;13.80;8.15;;;;;;;;;;10252591;28;20060;-54
2023/11/17 12:13:43;;;;;;;9.93;7.70;;;;;;;;;;10250085;28;20502;-55
2023/11/17 12:18:42;;;;;;;11.18;6.93;;;;;;;;;;10250437;28;20076;-54
2023/11/17 12:23:49;;;;;;;10.55;8.50;;;;;;;;;;10248557;28;20103;-55
2023/11/17 12:28:48;;;;;;;14.73;9.88;;;;;;;;;;10250609;28;20079;-56
2023/11/17 12:33:48;;;;;;;14.35;9.50;;;;;;;;;;10250216;28;20041;-54
2023/11/17 12:38:52;;;;;;;14.80;7.40;;;;;;;;;;10247498;28;20077;-54
2023/11/17 12:43:51;;;;;;;12.43;7.90;;;;;;;;;;10251003;28;20072;-54
2023/11/17 12:48:49;;;;;;;10.75;7.05;;;;;;;;;;10249290;28;20065;-57
2023/11/17 12:53:49;;;;;;;9.80;7.88;;;;;;;;;;10249893;28;20076;-55
2023/11/17 12:58:50;;;;;;;18.77;12.52;;;;;;;;;;10249279;28;20084;-55
2023/11/17 13:03:49;;;;;;;17.33;13.02;;;;;;;;;;10247358;28;20077;-55
2023/11/17 13:08:48;;;;;;;10.90;7.57;;;;;;;;;;10248739;28;20076;-54
2023/11/17 13:13:47;;;;;;;19.48;12.13;;;;;;;;;;10249224;28;20067;-54
2023/11/17 13:18:49;;;;;;;20.05;11.85;;;;;;;;;;10248055;28;20081;-55
2023/11/17 13:23:48;;;;;;;23.27;19.45;;;;;;;;;;10248933;28;20084;-54
2023/11/17 13:28:46;;;;;;;12.55;9.18;;;;;;;;;;10247889;28;20049;-55
2023/11/17 13:33:44;;;;;;;13.18;8.18;;;;;;;;;;10250491;28;20501;-55
2023/11/17 13:39:00;;;;;;;9.43;7.13;;;;;;;;;;10257124;28;20091;-55
2023/11/17 13:43:59;;;;;;;10.70;8.93;;;;;;;;;;10256730;28;20076;-56
2023/11/17 13:49:01;;;;;;;13.05;7.90;;;;;;;;;;10257279;28;20155;-56
2023/11/17 13:54:02;;;;;;;15.70;9.63;;;;;;;;;;10256548;28;20529;-56
2023/11/17 13:59:01;;;;;;;10.35;8.35;;;;;;;;;;10252068;28;20081;-56
2023/11/17 14:03:59;;;;;;;9.02;7.75;;;;;;;;;;10255602;28;20071;-56
2023/11/17 14:08:58;;;;;;;17.63;13.93;;;;;;;;;;10256377;28;20072;-55
2023/11/17 14:13:58;;;;;;;17.95;11.60;;;;;;;;;;10256546;28;20469;-56
2023/11/17 14:18:56;;;;;;;17.63;12.18;;;;;;;;;;10257175;28;20073;-53
2023/11/17 14:23:55;;;;;;;15.07;10.88;;;;;;;;;;10253960;28;20073;-53
2023/11/17 14:28:53;;;;;;;17.50;12.88;;;;;;;;;;10256054;28;20084;-53
2023/11/17 14:33:53;;;;;;;30.58;26.67;;;;;;;;;;10253583;28;20080;-55
2023/11/17 14:38:51;;;;;;;19.35;15.25;;;;;;;;;;10252584;28;20088;-53
2023/11/17 14:43:50;;;;;;;17.35;12.35;;;;;;;;;;10253064;28;20073;-52
2023/11/17 14:48:48;;;;;;;13.43;10.43;;;;;;;;;;10252605;28;20069;-54
2023/11/17 14:53:48;;;;;;;19.10;15.80;;;;;;;;;;10251864;28;20080;-55
2023/11/17 14:58:46;;;;;;;15.68;12.23;;;;;;;;;;10255688;28;20081;-54
2023/11/17 15:03:45;;;;;;;11.95;9.48;;;;;;;;;;10255072;28;20073;-50
2023/11/17 15:08:44;;;;;;;26.42;21.70;;;;;;;;;;10253151;28;20107;-53
2023/11/17 15:13:45;;;;;;;14.68;10.90;;;;;;;;;;10255216;28;20525;-54
2023/11/17 15:18:45;;;;;;;21.73;15.73;;;;;;;;;;10247261;28;20503;-54
2023/11/17 15:23:43;;;;;;;21.50;14.40;;;;;;;;;;10247401;28;20113;-53
2023/11/17 15:28:43;;;;;;;26.05;16.17;;;;;;;;;;10251084;28;20148;-54
2023/11/17 15:33:43;;;;;;;30.48;20.83;;;;;;;;;;10244972;28;20080;-55
2023/11/17 15:38:43;;;;;;;25.17;15.57;;;;;;;;;;10243302;28;20064;-55
2023/11/17 15:43:42;;;;;;;21.52;18.35;;;;;;;;;;10238082;28;20401;-54
2023/11/17 15:48:41;;;;;;;50.10;38.72;;;;;;;;;;10240441;28;20068;-52
2023/11/17 15:53:41;;;;;;;36.65;28.38;;;;;;;;;;10247622;28;20096;-55
2023/11/17 15:58:39;;;;;;;82.75;50.70;;;;;;;;;;10248510;28;20087;-55
2023/11/17 16:03:39;;;;;;;71.38;42.35;;;;;;;;;;10244784;28;20068;-54
2023/11/17 16:08:38;;;;;;;42.53;30.67;;;;;;;;;;10224940;28;20077;-51
2023/11/17 16:13:38;;;;;;;46.58;36.83;;;;;;;;;;10231292;28;20084;-55
2023/11/17 16:18:36;;;;;;;24.30;16.52;;;;;;;;;;10234530;28;20069;-56
2023/11/17 16:23:44;;;;;;;13.27;11.27;;;;;;;;;;10222769;28;20779;-54
2023/11/17 16:28:44;;;;;;;151.50;123.72;;;;;;;;;;10233616;28;20084;-54
2023/11/17 16:33:45;;;;;;;20.38;14.15;;;;;;;;;;10227270;28;20100;-54
2023/11/17 16:38:44;;;;;;;16.77;11.95;;;;;;;;;;10223608;28;20069;-55
2023/11/17 16:43:44;;;;;;;15.40;11.18;;;;;;;;;;10205667;28;20141;-56
2023/11/17 16:48:42;;;;;;;18.15;10.35;;;;;;;;;;10221611;28;20084;-55
2023/11/17 16:53:41;;;;;;;20.08;10.38;;;;;;;;;;10232496;28;20065;-54
2023/11/17 16:58:40;;;;;;;25.05;15.77;;;;;;;;;;10228505;28;20522;-55
2023/11/17 17:03:40;;;;;;;19.98;14.05;;;;;;;;;;10237427;28;20054;-54
2023/11/17 17:08:38;;;;;;;18.67;13.40;;;;;;;;;;10242392;28;20463;-54
2023/11/17 17:13:40;;;;;;;18.45;12.40;;;;;;;;;;10243197;28;20085;-55
2023/11/17 17:18:40;;;;;;;16.73;11.02;;;;;;;;;;10239110;28;20076;-55
2023/11/17 17:23:38;;;;;;;19.52;11.32;;;;;;;;;;10241583;28;20073;-52
2023/11/17 17:28:36;;;;;;;13.98;11.73;;;;;;;;;;10236172;28;20065;-53
2023/11/17 17:33:35;;;;;;;15.07;11.65;;;;;;;;;;10223175;28;20073;-56
2023/11/17 17:38:37;;;;;;;47.25;35.10;;;;;;;;;;10231502;28;20084;-57
2023/11/17 17:43:36;;;;;;;22.20;16.95;;;;;;;;;;10227079;28;20073;-52
2023/11/17 17:48:34;;;;;;;27.08;18.77;;;;;;;;;;10238249;28;20072;-54
2023/11/17 17:53:33;;;;;;;20.48;12.88;;;;;;;;;;10217434;28;20518;-55
2023/11/17 17:58:33;;;;;;;19.25;13.02;;;;;;;;;;10237897;28;20065;-52
2023/11/17 18:03:31;;;;;;;24.05;16.52;;;;;;;;;;10228880;28;20075;-51
2023/11/17 18:08:31;;;;;;;17.05;13.25;;;;;;;;;;10235739;28;20057;-54
2023/11/17 18:13:29;;;;;;;20.88;15.20;;;;;;;;;;10234088;28;20073;-55
2023/11/17 18:18:29;;;;;;;14.85;11.77;;;;;;;;;;10218883;28;20704;-57
2023/11/17 18:23:28;;;;;;;20.02;12.45;;;;;;;;;;10235388;28;20065;-54
2023/11/17 18:28:26;;;;;;;14.57;12.50;;;;;;;;;;10235980;28;20061;-56
2023/11/17 18:33:24;;;;;;;19.52;15.00;;;;;;;;;;10241276;28;20069;-56
2023/11/17 18:38:25;;;;;;;54.33;37.75;;;;;;;;;;10249935;28;20466;-55
2023/11/17 18:43:23;;;;;;;23.27;17.42;;;;;;;;;;10250561;28;20069;-56
2023/11/17 18:48:21;;;;;;;173.55;104.50;;;;;;;;;;10228567;28;20073;-56
2023/11/17 18:53:21;;;;;;;30.30;26.08;;;;;;;;;;10217326;28;20161;-56
2023/11/17 18:58:21;;;;;;;42.97;28.52;;;;;;;;;;10217734;28;21407;-55
2023/11/17 19:03:19;;;;;;;20.60;16.45;;;;;;;;;;10224832;28;20073;-54
2023/11/17 19:08:18;;;;;;;22.67;14.95;;;;;;;;;;10213230;28;20137;-55
2023/11/17 19:13:17;;;;;;;21.83;17.73;;;;;;;;;;10199262;28;20128;-54
2023/11/17 19:18:16;;;;;;;31.13;21.23;;;;;;;;;;10214872;28;20068;-55
2023/11/17 19:23:18;;;;;;;22.42;17.50;;;;;;;;;;10213836;28;20143;-55
2023/11/17 19:28:16;;;;;;;18.92;15.48;;;;;;;;;;10216578;28;20069;-55
2023/11/17 19:33:15;;;;;;;42.15;34.60;;;;;;;;;;10220560;28;20128;-55
2023/11/17 19:38:14;;;;;;;25.63;19.35;;;;;;;;;;10219031;28;20522;-55
2023/11/17 19:43:15;;;;;;;18.10;15.23;;;;;;;;;;10221123;28;20065;-48
2023/11/17 19:48:14;;;;;;;23.42;20.40;;;;;;;;;;10230317;28;20064;-51
2023/11/17 19:53:12;;;;;;;22.67;17.27;;;;;;;;;;10221234;28;20045;-50
2023/11/17 19:58:14;;;;;;;25.15;20.85;;;;;;;;;;10228506;28;20479;-55
2023/11/17 20:03:13;;;;;;;24.83;20.48;;;;;;;;;;10221426;28;20522;-49
2023/11/17 20:08:15;;;;;;;25.00;20.83;;;;;;;;;;10222340;28;20566;-55
2023/11/17 20:13:15;;;;;;;27.67;20.52;;;;;;;;;;10226899;28;20073;-50
2023/11/17 20:18:14;;;;;;;24.77;17.58;;;;;;;;;;10220652;28;20067;-49
2023/11/17 20:23:13;;;;;;;21.88;18.42;;;;;;;;;;10216254;28;20405;-48
2023/11/17 20:28:12;;;;;;;25.48;22.67;;;;;;;;;;10219454;28;20098;-51
2023/11/17 20:33:15;;;;;;;25.48;19.17;;;;;;;;;;10208588;28;20557;-51
2023/11/17 20:38:13;;;;;;;25.85;19.42;;;;;;;;;;10212057;28;20117;-52
2023/11/17 20:43:13;;;;;;;21.23;18.25;;;;;;;;;;10215470;28;20072;-49
2023/11/17 20:48:13;;;;;;;20.52;16.60;;;;;;;;;;10219947;28;20092;-48
2023/11/17 20:53:11;;;;;;;19.77;15.25;;;;;;;;;;10216133;28;20481;-50
2023/11/17 20:58:09;;;;;;;22.90;20.52;;;;;;;;;;10215893;28;20085;-51
2023/11/17 21:03:09;;;;;;;22.77;20.02;;;;;;;;;;10219129;28;20088;-48
2023/11/17 21:08:10;;;;;;;19.95;17.85;;;;;;;;;;10220788;28;20080;-53
2023/11/17 21:13:08;;;;;;;23.50;19.45;;;;;;;;;;10228521;28;20792;-48
2023/11/17 21:18:08;;;;;;;38.22;30.92;;;;;;;;;;10229431;28;20084;-48
2023/11/17 21:23:08;;;;;;;23.08;18.33;;;;;;;;;;10231156;28;20073;-51
2023/11/17 21:28:08;;;;;;;17.67;15.57;;;;;;;;;;10231440;28;20073;-46
2023/11/17 21:33:07;;;;;;;17.77;15.75;;;;;;;;;;10229282;28;20080;-51
2023/11/17 21:38:07;;;;;;;21.98;19.60;;;;;;;;;;10231391;28;20460;-51
2023/11/17 21:43:05;;;;;;;20.38;16.85;;;;;;;;;;10231816;28;20073;-47
2023/11/17 21:48:07;;;;;;;19.52;17.00;;;;;;;;;;10231796;28;20073;-49
2023/11/17 21:53:05;;;;;;;21.63;17.38;;;;;;;;;;10232033;28;20548;-48
2023/11/17 21:58:06;;;;;;;24.25;17.92;;;;;;;;;;10234652;28;20177;-52
2023/11/17 22:03:05;;;;;;;21.58;19.20;;;;;;;;;;10239135;28;20081;-52
2023/11/17 22:08:05;;;;;;;20.83;16.98;;;;;;;;;;10239187;28;20073;-52
2023/11/17 22:13:03;;;;;;;21.75;16.85;;;;;;;;;;10237032;28;20065;-51
2023/11/17 22:18:02;;;;;;;19.45;16.40;;;;;;;;;;10238779;28;20474;-53
2023/11/17 22:23:01;;;;;;;16.15;14.50;;;;;;;;;;10238265;28;20505;-52
2023/11/17 22:27:59;;;;;;;21.85;16.23;;;;;;;;;;10236931;28;20073;-53
2023/11/17 22:32:58;;;;;;;17.95;16.00;;;;;;;;;;10236460;28;20309;-53
2023/11/17 22:37:56;;;;;;;19.90;17.77;;;;;;;;;;10235279;28;20069;-54
2023/11/17 22:42:56;;;;;;;25.55;22.95;;;;;;;;;;10233412;28;20072;-53
2023/11/17 22:47:54;;;;;;;23.05;17.27;;;;;;;;;;10237350;28;20106;-54
2023/11/17 22:52:52;;;;;;;19.55;17.35;;;;;;;;;;10237372;28;21046;-53
2023/11/17 22:57:53;;;;;;;19.75;17.70;;;;;;;;;;10236657;28;20091;-51
2023/11/17 23:02:53;;;;;;;20.65;16.80;;;;;;;;;;10235598;28;20069;-54
2023/11/17 23:07:51;;;;;;;25.25;21.10;;;;;;;;;;10235573;28;20069;-55
2023/11/17 23:12:49;;;;;;;20.60;17.13;;;;;;;;;;10234294;28;20080;-52
2023/11/17 23:17:47;;;;;;;19.60;17.52;;;;;;;;;;10235109;28;20077;-51
2023/11/17 23:22:47;;;;;;;22.80;17.17;;;;;;;;;;10235224;28;20065;-55
2023/11/17 23:27:46;;;;;;;21.38;19.13;;;;;;;;;;10235432;28;20069;-54
2023/11/17 23:32:44;;;;;;;29.60;23.80;;;;;;;;;;10235428;28;20069;-54
2023/11/17 23:37:43;;;;;;;18.33;15.32;;;;;;;;;;10231876;28;20091;-54
2023/11/17 23:42:43;;;;;;;32.50;28.27;;;;;;;;;;10233203;28;20072;-54
2023/11/17 23:47:41;;;;;;;51.40;44.83;;;;;;;;;;10233003;28;20118;-53
2023/11/17 23:52:39;;;;;;;30.38;21.60;;;;;;;;;;10234014;28;20560;-53
2023/11/17 23:57:37;;;;;;;22.52;20.00;;;;;;;;;;10234268;28;20072;-52
